createdAt,value
2022-09-02T00:04:33.189Z,35.20
2022-09-02T00:09:40.501Z,35.30
2022-09-02T00:14:43.780Z,35.20
2022-09-02T00:19:46.934Z,35.20
2022-09-02T00:24:51.469Z,35.10
2022-09-02T00:29:54.593Z,35.10
2022-09-02T00:34:58.963Z,35.00
2022-09-02T00:40:04.931Z,34.90
2022-09-02T00:45:10.791Z,34.90
2022-09-02T00:50:17.825Z,34.80
2022-09-02T00:55:25.678Z,34.80
2022-09-02T01:00:34.690Z,34.70
2022-09-02T01:05:52.260Z,34.70
2022-09-02T01:10:57.930Z,34.70
2022-09-02T01:16:07.950Z,35.10
2022-09-02T01:21:12.140Z,35.30
2022-09-02T01:26:16.996Z,35.00
2022-09-02T01:31:20.208Z,35.20
2022-09-02T01:36:23.457Z,35.10
2022-09-02T01:41:28.056Z,35.10
2022-09-02T01:46:31.440Z,35.20
2022-09-02T01:51:34.688Z,35.10
2022-09-02T01:56:39.570Z,35.10
2022-09-02T02:01:42.737Z,35.40
2022-09-02T02:06:48.768Z,35.20
2022-09-02T02:11:56.920Z,35.40
2022-09-02T02:17:00.089Z,35.40
2022-09-02T02:22:03.593Z,35.30
2022-09-02T02:27:08.230Z,35.30
2022-09-02T02:32:11.620Z,35.50
2022-09-02T02:37:15.760Z,35.40
2022-09-02T02:42:20.364Z,35.40
2022-09-02T02:47:23.495Z,35.40
2022-09-02T02:52:27.212Z,35.50
2022-09-02T02:57:31.746Z,35.50
2022-09-02T03:02:35.146Z,35.70
2022-09-02T03:07:38.457Z,35.50
2022-09-02T03:12:44.981Z,35.60
2022-09-02T03:17:49.091Z,35.70
2022-09-02T03:22:55.028Z,35.60
2022-09-02T03:28:00.777Z,35.70
2022-09-02T03:33:05.418Z,36.60
2022-09-02T03:38:09.385Z,35.70
2022-09-02T03:43:15.008Z,35.90
2022-09-02T03:48:18.253Z,36.10
2022-09-02T03:53:21.644Z,35.90
2022-09-02T03:58:26.357Z,35.80
2022-09-02T04:03:29.573Z,36.10
2022-09-02T04:08:32.660Z,36.00
2022-09-02T04:13:37.758Z,36.00
2022-09-02T04:18:41.349Z,36.20
2022-09-02T04:23:44.591Z,36.00
2022-09-02T04:28:50.510Z,36.10
2022-09-02T04:33:54.575Z,36.30
2022-09-02T04:38:59.351Z,36.20
2022-09-02T04:44:04.772Z,36.40
2022-09-02T04:49:08.713Z,37.30
2022-09-02T04:54:12.045Z,36.30
2022-09-02T04:59:16.653Z,36.30
2022-09-02T05:04:19.828Z,36.60
2022-09-02T05:09:23.089Z,36.50
2022-09-02T05:14:28.508Z,36.60
2022-09-02T05:19:34.311Z,36.90
2022-09-02T05:24:37.434Z,36.90
2022-09-02T05:29:45.228Z,37.00
2022-09-02T05:34:49.073Z,37.50
2022-09-02T05:39:52.798Z,37.30
2022-09-02T05:44:57.339Z,37.50
2022-09-02T05:50:01.624Z,37.90
2022-09-02T05:55:07.236Z,37.60
2022-09-02T06:00:17.937Z,37.80
2022-09-02T06:05:21.467Z,38.40
2022-09-02T06:10:24.586Z,37.80
2022-09-02T06:15:31.079Z,37.90
2022-09-02T06:20:34.338Z,38.40
2022-09-02T06:25:38.292Z,38.10
2022-09-02T06:30:45.336Z,38.50
2022-09-02T06:35:49.457Z,39.20
2022-09-02T06:40:54.854Z,38.80
2022-09-02T06:45:59.962Z,39.30
2022-09-02T06:51:03.133Z,39.30
2022-09-02T06:56:08.944Z,39.40
2022-09-02T07:01:19.646Z,39.80
2022-09-02T07:06:22.957Z,39.90
2022-09-02T07:11:26.180Z,39.30
2022-09-02T07:16:31.902Z,39.20
2022-09-02T07:21:36.210Z,39.80
2022-09-02T07:26:39.640Z,39.30
2022-09-02T07:31:47.648Z,39.10
2022-09-02T07:36:50.928Z,39.10
2022-09-02T07:41:54.179Z,39.00
2022-09-02T07:46:58.712Z,39.00
2022-09-02T07:52:01.908Z,38.60
2022-09-02T07:57:06.757Z,38.40
2022-09-02T08:02:11.296Z,38.30
2022-09-02T08:07:14.508Z,37.90
2022-09-02T08:12:20.156Z,38.00
2022-09-02T08:17:26.749Z,37.60
2022-09-02T08:22:35.198Z,36.90
2022-09-02T08:27:39.340Z,36.40
2022-09-02T08:32:44.229Z,36.70
2022-09-02T08:37:47.493Z,35.80
2022-09-02T08:42:54.253Z,35.90
2022-09-02T08:48:08.202Z,34.70
2022-09-02T08:53:18.850Z,33.50
2022-09-02T08:58:25.316Z,34.60
2022-09-02T09:03:35.960Z,33.60
2022-09-02T09:08:49.962Z,32.70
2022-09-02T09:14:13.548Z,31.80
2022-09-02T09:19:23.848Z,31.90
2022-09-02T09:24:33.608Z,31.50
2022-09-02T09:29:37.194Z,31.00
2022-09-02T09:35:07.237Z,31.90
2022-09-02T09:40:30.617Z,30.10
2022-09-02T09:45:36.604Z,30.00
2022-09-02T09:50:41.374Z,29.90
2022-09-02T09:55:53.901Z,29.90
2022-09-02T10:01:00.491Z,29.10
2022-09-02T10:06:20.031Z,30.50
2022-09-02T10:11:26.490Z,28.90
2022-09-02T10:16:49.934Z,28.90
2022-09-02T10:22:21.005Z,28.20
2022-09-02T10:27:34.108Z,28.20
2022-09-02T10:33:00.895Z,27.10
2022-09-02T10:38:29.362Z,26.30
2022-09-02T10:43:57.555Z,26.80
2022-09-02T10:49:09.114Z,26.80
2022-09-02T10:54:26.023Z,26.90
2022-09-02T10:59:35.173Z,26.60
2022-09-02T11:04:43.164Z,26.00
2022-09-02T11:09:52.908Z,26.60
2022-09-02T11:15:05.056Z,25.90
2022-09-02T11:20:15.789Z,25.80
2022-09-02T11:25:25.737Z,25.70
2022-09-02T11:30:36.498Z,25.50
2022-09-02T11:35:40.882Z,26.00
2022-09-02T11:47:00.898Z,25.70
2022-09-02T11:57:33.945Z,25.30
2022-09-02T12:02:40.852Z,25.40
2022-09-02T12:07:50.269Z,25.40
2022-09-02T12:13:09.853Z,24.70
2022-09-02T12:18:15.708Z,25.40
2022-09-02T12:24:03.989Z,25.50
2022-09-02T12:29:32.220Z,25.00
2022-09-02T12:34:54.659Z,24.70
2022-09-02T12:40:03.152Z,25.10
2022-09-02T12:45:14.581Z,25.10
2022-09-02T12:50:27.478Z,23.90
2022-09-02T12:55:32.826Z,23.90
2022-09-02T13:00:51.055Z,24.70
2022-09-02T13:06:00.018Z,24.20
2022-09-02T13:11:39.948Z,24.40
2022-09-02T13:17:19.059Z,23.70
2022-09-02T13:22:50.729Z,23.80
2022-09-02T13:28:08.792Z,23.90
2022-09-02T13:33:15.612Z,23.70
2022-09-02T13:38:24.805Z,23.90
2022-09-02T13:43:28.649Z,23.50
2022-09-02T13:48:35.288Z,24.30
2022-09-02T13:53:58.915Z,24.00
2022-09-02T13:59:02.601Z,24.00
2022-09-02T14:04:14.337Z,24.50
2022-09-02T14:09:23.285Z,23.40
2022-09-02T14:14:27.113Z,23.20
2022-09-02T14:19:32.789Z,23.70
2022-09-02T14:24:41.937Z,23.40
2022-09-02T14:29:46.727Z,22.90
2022-09-02T14:35:19.667Z,23.50
2022-09-02T14:40:34.237Z,22.90
2022-09-02T14:45:37.416Z,22.30
2022-09-02T14:50:43.260Z,23.40
2022-09-02T14:55:50.085Z,22.60
2022-09-02T15:00:55.653Z,22.80
2022-09-02T15:06:00.192Z,23.10
2022-09-02T15:11:03.679Z,22.70
2022-09-02T15:16:08.174Z,23.00
2022-09-02T15:21:12.940Z,23.10
2022-09-02T15:26:16.362Z,22.40
2022-09-02T15:31:19.818Z,22.70
2022-09-02T15:36:26.270Z,22.70
2022-09-02T15:41:31.516Z,22.30
2022-09-02T15:46:37.054Z,22.60
2022-09-02T15:51:44.838Z,22.60
2022-09-02T15:56:49.048Z,21.80
2022-09-02T16:01:55.247Z,22.30
2022-09-02T16:07:01.200Z,22.20
2022-09-02T16:12:06.254Z,22.00
2022-09-02T16:17:10.274Z,22.90
2022-09-02T16:22:14.809Z,22.00
2022-09-02T16:27:39.021Z,21.70
2022-09-02T16:32:42.187Z,22.30
2022-09-02T16:37:46.715Z,22.40
2022-09-02T16:42:50.302Z,22.20
2022-09-02T16:47:53.439Z,22.40
2022-09-02T16:52:58.264Z,22.40
2022-09-02T16:58:02.903Z,22.00
2022-09-02T17:03:06.211Z,22.00
2022-09-02T17:08:11.044Z,22.10
2022-09-02T17:13:14.718Z,22.10
2022-09-02T17:18:17.993Z,22.20
2022-09-02T17:23:22.561Z,22.20
2022-09-02T17:28:27.384Z,22.10
2022-09-02T17:33:30.931Z,22.50
2022-09-02T17:38:35.487Z,22.50
2022-09-02T17:43:39.560Z,22.90
2022-09-02T17:49:05.815Z,23.10
2022-09-02T17:54:08.257Z,23.30
2022-09-02T17:59:20.672Z,23.30
2022-09-02T18:04:33.732Z,23.40
2022-09-02T18:09:40.455Z,23.70
2022-09-02T18:14:48.940Z,23.70
2022-09-02T18:19:59.613Z,23.80
2022-09-02T18:25:17.471Z,24.20
2022-09-02T18:30:22.620Z,24.20
2022-09-02T18:35:37.199Z,24.30
2022-09-02T18:40:49.061Z,24.40
2022-09-02T18:45:54.580Z,24.90
2022-09-02T18:50:59.624Z,24.90
2022-09-02T18:56:08.498Z,24.90
2022-09-02T19:01:17.743Z,25.40
2022-09-02T19:06:22.945Z,25.40
2022-09-02T19:11:27.571Z,25.40
2022-09-02T19:16:34.275Z,25.40
2022-09-02T19:21:41.615Z,25.50
2022-09-02T19:26:46.999Z,25.50
2022-09-02T19:31:53.109Z,25.50
2022-09-02T19:36:57.380Z,26.20
2022-09-02T19:42:02.495Z,25.80
2022-09-02T19:47:56.102Z,26.20
2022-09-02T19:52:28.864Z,26.20
2022-09-02T19:57:33.412Z,26.40
2022-09-02T20:02:36.709Z,26.30
2022-09-02T20:07:40.144Z,26.30
2022-09-02T20:12:44.780Z,26.20
2022-09-02T20:17:47.941Z,26.10
2022-09-02T20:22:57.527Z,26.10
2022-09-02T20:28:10.546Z,26.00
2022-09-02T20:33:19.303Z,26.50
2022-09-02T20:38:43.010Z,26.70
2022-09-02T20:44:18.998Z,27.10
2022-09-02T20:49:39.395Z,27.00
2022-09-02T20:54:48.133Z,27.30
2022-09-02T21:00:03.765Z,27.10
2022-09-02T21:05:12.729Z,27.30
2022-09-02T21:10:20.273Z,27.40
2022-09-02T21:15:29.457Z,27.50
2022-09-02T21:20:43.932Z,27.70
2022-09-02T21:25:53.952Z,28.00
2022-09-02T21:31:04.707Z,27.90
2022-09-02T21:36:08.263Z,28.20
2022-09-02T21:41:29.857Z,27.60
2022-09-02T21:46:43.014Z,28.40
2022-09-02T21:51:51.249Z,28.20
2022-09-02T21:57:14.328Z,28.40
2022-09-02T22:02:26.300Z,28.30
2022-09-02T22:07:34.803Z,28.50
2022-09-02T22:12:40.873Z,28.40
2022-09-02T22:17:51.700Z,28.80
2022-09-02T22:23:03.246Z,28.80
2022-09-02T22:28:10.578Z,28.60
2022-09-02T22:33:19.530Z,28.40
2022-09-02T22:38:29.505Z,28.50
2022-09-02T22:43:41.632Z,28.40
2022-09-02T22:49:11.643Z,28.50
2022-09-02T22:54:14.896Z,28.60
2022-09-02T22:59:36.840Z,28.30
2022-09-02T23:05:37.049Z,28.80
2022-09-02T23:10:48.221Z,28.50
2022-09-02T23:16:04.674Z,28.90
2022-09-02T23:21:22.495Z,29.10
2022-09-02T23:26:33.217Z,29.60
2022-09-02T23:31:56.453Z,29.50
2022-09-02T23:37:09.699Z,29.70
2022-09-02T23:42:14.169Z,29.80
2022-09-02T23:47:38.275Z,29.20
2022-09-02T23:52:56.256Z,29.90
2022-09-02T23:58:14.281Z,30.10
